Crossville, Tennessee
Current Conditions -  °F | °C
As of 8:53 AM on Monday 22 Dec 2014 (Local Time) from KCSV Reporting Station
Overcast Overcast  
Wind Chill: 43°   Ceiling: 1200
Heat Index: 47°   Visibility: 10mi
Dew Point: 39°   Wind: 8mph
Humidity: 74%   Direction: 150°SSE
Pressure: 29.98"   Gusts: NA
Location:  35.95°N, 85.03°W
Report Text: KCSV 221453Z AUTO 15007KT 10SM OVC012 08/04 A2998 RMK AO2 SLP153 T00830039 58001
Loading
Personal Weather Stations






























Interactive Weather Map New forecast layout! Learn more

10-Day Weather Forecast

Advertisements
Track Severe Weather on mobile